Time;durP1;ratioP1;P1;durP2;ratioP2;P2;SDS_P1;SDS_P2;PMS_P1;PMS_P2;Temp;Humidity;BMP_temperature;BMP_pressure;BME280_temperature;BME280_humidity;BME280_pressure;Samples;Min_cycle;Max_cycle;Signal;HPM_P1;HPM_P2
2022/08/06 00:00:41;;;;;;;;;;;;;;;11.27;41.77;96284.44;5006519;28;20065;-66
2022/08/06 00:03:07;;;;;;;;;;;;;;;11.47;41.09;96279.59;5006209;28;20488;-66
2022/08/06 00:05:32;;;;;;;;;;;;;;;11.51;41.56;96283.59;5012849;28;20350;-66
2022/08/06 00:07:58;;;;;;;;;;;;;;;11.60;40.94;96279.06;5015043;28;20310;-66
2022/08/06 00:10:23;;;;;;;;;;;;;;;11.76;40.22;96288.06;5009014;28;19985;-66
2022/08/06 00:12:48;;;;;;;;;;;;;;;11.77;39.86;96292.41;5011393;28;19970;-66
2022/08/06 00:15:14;;;;;;;;;;;;;;;11.67;40.67;96289.06;5010840;28;19985;-65
2022/08/06 00:17:42;;;;;;;;;;;;;;;11.61;40.00;96288.75;5010928;28;19997;-66
2022/08/06 00:20:08;;;;;;;;;;;;;;;11.83;40.06;96296.22;5010515;28;20401;-66
2022/08/06 00:22:33;;;;;;;;;;;;;;;11.93;39.81;96283.53;5016701;28;19986;-66
2022/08/06 00:24:58;;;;;;;;;;;;;;;12.05;39.45;96284.00;5012655;28;19973;-66
2022/08/06 00:27:23;;;;;;;;;;;;;;;11.96;39.66;96285.84;5012757;28;20368;-66
2022/08/06 00:29:49;;;;;;;;;;;;;;;11.99;39.53;96284.69;5007239;28;19997;-66
2022/08/06 00:32:15;;;;;;;;;;;;;;;11.82;39.65;96284.72;4989359;28;19978;-66
2022/08/06 00:34:40;;;;;;;;;;;;;;;11.58;41.11;96280.25;5011237;28;19997;-66
2022/08/06 00:37:05;;;;;;;;;;;;;;;11.74;40.57;96282.91;5011366;28;19993;-65
2022/08/06 00:39:30;;;;;;;;;;;;;;;11.55;41.20;96281.41;5007445;28;19970;-66
2022/08/06 00:41:56;;;;;;;;;;;;;;;11.02;42.33;96283.53;5016834;28;19997;-65
2022/08/06 00:44:21;;;;;;;;;;;;;;;11.22;43.06;96286.75;5013979;28;20528;-66
2022/08/06 00:46:47;;;;;;;;;;;;;;;11.34;42.03;96295.25;5013099;28;20114;-66
2022/08/06 00:49:12;;;;;;;;;;;;;;;11.31;41.64;96287.56;5007934;28;19973;-66
2022/08/06 00:51:37;;;;;;;;;;;;;;;11.48;43.96;96283.09;5005883;28;20010;-65
2022/08/06 00:54:03;;;;;;;;;;;;;;;11.69;41.00;96279.91;5004653;28;20516;-66
2022/08/06 00:56:28;;;;;;;;;;;;;;;11.65;41.07;96281.25;5005018;28;19982;-66
2022/08/06 00:58:53;;;;;;;;;;;;;;;11.76;40.69;96274.72;5005247;28;19997;-66
2022/08/06 01:01:19;;;;;;;;;;;;;;;11.77;40.66;96281.72;5002754;28;20128;-66
2022/08/06 01:03:44;;;;;;;;;;;;;;;11.74;40.55;96272.25;5011161;28;20420;-65
2022/08/06 01:06:10;;;;;;;;;;;;;;;11.67;41.01;96278.41;5014755;28;19997;-66
2022/08/06 01:08:35;;;;;;;;;;;;;;;11.31;41.39;96275.09;5014923;28;19982;-66
2022/08/06 01:11:00;;;;;;;;;;;;;;;11.42;41.70;96289.09;5005756;28;20385;-66
2022/08/06 01:13:25;;;;;;;;;;;;;;;10.95;42.41;96289.50;4997253;28;20064;-66
2022/08/06 01:16:11;;;;;;;;;;;;;;;11.33;41.74;96286.44;5014826;28;20113;-66
2022/08/06 01:18:41;;;;;;;;;;;;;;;11.20;41.85;96296.75;4984447;28;20499;-65
2022/08/06 01:21:06;;;;;;;;;;;;;;;11.37;41.44;96303.75;5009542;28;20039;-65
2022/08/06 01:23:41;;;;;;;;;;;;;;;11.43;41.32;96302.28;5008653;28;19962;-65
2022/08/06 01:26:18;;;;;;;;;;;;;;;11.17;41.82;96305.06;5007374;28;19993;-66
2022/08/06 01:28:45;;;;;;;;;;;;;;;11.17;41.79;96305.06;5005503;28;19966;-66
2022/08/06 01:31:16;;;;;;;;;;;;;;;11.22;41.60;96311.56;5006361;28;20059;-66
2022/08/06 01:33:44;;;;;;;;;;;;;;;11.26;41.44;96307.56;5007352;28;20076;-66
2022/08/06 01:36:09;;;;;;;;;;;;;;;11.23;41.63;96312.41;5005363;28;20029;-66
2022/08/06 01:38:35;;;;;;;;;;;;;;;11.23;41.28;96317.75;5010025;28;20009;-66
2022/08/06 01:41:01;;;;;;;;;;;;;;;11.11;41.72;96315.38;4998773;28;20026;-65
2022/08/06 01:43:27;;;;;;;;;;;;;;;11.03;42.11;96322.50;5011409;28;20005;-66
2022/08/06 01:45:52;;;;;;;;;;;;;;;11.01;41.75;96320.00;5009684;28;20001;-66
2022/08/06 01:48:19;;;;;;;;;;;;;;;10.83;42.39;96322.78;5003968;28;19973;-66
2022/08/06 01:50:45;;;;;;;;;;;;;;;10.87;41.91;96318.81;5013039;28;20040;-66
2022/08/06 01:53:11;;;;;;;;;;;;;;;10.78;42.02;96333.09;5005810;28;20016;-65
2022/08/06 01:55:39;;;;;;;;;;;;;;;10.71;42.43;96335.59;5003170;28;20631;-66
2022/08/06 01:58:04;;;;;;;;;;;;;;;10.71;42.07;96330.25;4986512;28;20076;-66
2022/08/06 02:00:29;;;;;;;;;;;;;;;10.73;41.91;96336.25;5011536;28;20441;-66
2022/08/06 02:02:55;;;;;;;;;;;;;;;10.66;42.13;96332.56;5006961;28;20585;-66
2022/08/06 02:05:20;;;;;;;;;;;;;;;10.57;42.30;96337.84;5006209;28;20770;-66
2022/08/06 02:07:46;;;;;;;;;;;;;;;10.51;42.65;96342.97;5009490;28;20136;-66
2022/08/06 02:10:12;;;;;;;;;;;;;;;10.44;42.79;96350.78;5013301;28;20022;-66
2022/08/06 02:12:37;;;;;;;;;;;;;;;10.32;43.09;96353.72;5003365;28;20079;-66
2022/08/06 02:15:04;;;;;;;;;;;;;;;10.27;43.13;96344.53;5007041;28;19990;-65
2022/08/06 02:17:31;;;;;;;;;;;;;;;10.23;43.45;96354.66;5010629;28;20687;-66
2022/08/06 02:20:00;;;;;;;;;;;;;;;10.18;43.17;96363.13;5014430;28;19966;-66
2022/08/06 02:22:26;;;;;;;;;;;;;;;10.14;43.30;96368.91;5012858;28;19986;-66
2022/08/06 02:24:51;;;;;;;;;;;;;;;10.08;43.41;96365.88;5009808;28;19966;-66
2022/08/06 02:27:16;;;;;;;;;;;;;;;10.01;43.64;96362.16;5006816;28;20052;-66
2022/08/06 02:29:42;;;;;;;;;;;;;;;9.97;43.41;96364.28;4995756;28;19993;-66
2022/08/06 02:32:07;;;;;;;;;;;;;;;9.95;43.74;96362.75;5009339;28;20035;-66
2022/08/06 02:34:33;;;;;;;;;;;;;;;9.90;43.99;96359.75;5013253;28;20068;-66
2022/08/06 02:37:01;;;;;;;;;;;;;;;9.84;44.48;96366.53;5014365;28;20481;-65
2022/08/06 02:39:27;;;;;;;;;;;;;;;9.80;45.09;96370.47;5012805;28;20004;-65
2022/08/06 02:41:55;;;;;;;;;;;;;;;9.75;45.27;96368.28;5008814;28;19990;-66
2022/08/06 02:44:39;;;;;;;;;;;;;;;9.91;44.38;96372.03;4991733;28;20092;-65
2022/08/06 02:47:06;;;;;;;;;;;;;;;9.80;45.17;96365.97;5010399;28;20040;-66
2022/08/06 02:49:33;;;;;;;;;;;;;;;9.79;44.43;96366.97;5000043;28;19993;-66
2022/08/06 02:51:59;;;;;;;;;;;;;;;9.38;45.59;96364.81;5012458;28;19973;-66
2022/08/06 02:54:28;;;;;;;;;;;;;;;9.69;44.82;96364.41;5008072;28;20702;-66
2022/08/06 02:56:54;;;;;;;;;;;;;;;9.65;44.56;96363.03;5013748;28;19989;-66
2022/08/06 02:59:21;;;;;;;;;;;;;;;9.72;44.46;96368.56;5006156;28;20000;-66
2022/08/06 03:01:56;;;;;;;;;;;;;;;9.83;43.06;96373.66;5006438;28;20463;-65
2022/08/06 03:04:22;;;;;;;;;;;;;;;9.76;43.15;96369.13;5014782;28;19973;-66
2022/08/06 03:06:47;;;;;;;;;;;;;;;9.55;45.35;96373.75;4989160;28;20449;-66
2022/08/06 03:09:12;;;;;;;;;;;;;;;9.39;46.82;96373.63;5008654;28;20004;-65
2022/08/06 03:11:40;;;;;;;;;;;;;;;9.29;48.79;96385.13;5011764;28;20032;-65
2022/08/06 03:14:05;;;;;;;;;;;;;;;8.67;48.30;96389.25;5010618;28;19998;-66
2022/08/06 03:16:31;;;;;;;;;;;;;;;9.05;49.68;96386.56;5017992;28;20060;-66
2022/08/06 03:18:56;;;;;;;;;;;;;;;8.90;50.43;96398.63;5008974;28;20005;-66
2022/08/06 03:21:22;;;;;;;;;;;;;;;8.84;50.87;96400.06;5007193;28;19997;-66
2022/08/06 03:23:47;;;;;;;;;;;;;;;8.66;46.98;96394.72;5010338;28;19978;-66
2022/08/06 03:26:12;;;;;;;;;;;;;;;8.76;47.92;96397.31;5010165;28;20017;-66
2022/08/06 03:28:37;;;;;;;;;;;;;;;8.90;46.98;96401.28;5012085;28;19980;-66
2022/08/06 03:31:03;;;;;;;;;;;;;;;8.53;47.52;96401.19;5005547;28;20518;-66
2022/08/06 03:33:28;;;;;;;;;;;;;;;8.76;47.49;96398.16;5016936;28;19993;-66
2022/08/06 03:35:54;;;;;;;;;;;;;;;8.85;47.38;96395.59;5015499;28;19981;-66
2022/08/06 03:38:19;;;;;;;;;;;;;;;9.03;46.43;96393.84;5008198;28;19992;-66
2022/08/06 03:40:44;;;;;;;;;;;;;;;9.14;46.14;96397.28;5005198;28;20028;-66
2022/08/06 03:43:09;;;;;;;;;;;;;;;9.21;45.44;96401.00;5013172;28;20030;-66
2022/08/06 03:45:35;;;;;;;;;;;;;;;9.24;45.25;96402.56;5006270;28;20305;-66
2022/08/06 03:48:01;;;;;;;;;;;;;;;9.24;45.10;96403.38;5008583;28;20076;-65
2022/08/06 03:50:30;;;;;;;;;;;;;;;9.25;44.93;96407.69;5004539;28;20358;-66
2022/08/06 03:52:56;;;;;;;;;;;;;;;9.23;44.37;96409.69;4990253;28;20062;-66
2022/08/06 03:55:24;;;;;;;;;;;;;;;9.14;44.48;96413.22;4989699;28;20035;-66
2022/08/06 03:57:51;;;;;;;;;;;;;;;9.23;44.87;96411.50;5004956;28;20374;-66
2022/08/06 04:00:17;;;;;;;;;;;;;;;9.28;45.22;96423.34;5003777;28;19974;-66
2022/08/06 04:02:44;;;;;;;;;;;;;;;9.37;44.90;96418.09;5014527;28;19989;-65
2022/08/06 04:05:09;;;;;;;;;;;;;;;9.52;45.04;96421.91;4993227;28;20397;-66
2022/08/06 04:07:35;;;;;;;;;;;;;;;9.64;44.51;96419.88;5014840;28;19961;-66
2022/08/06 04:10:00;;;;;;;;;;;;;;;9.68;44.96;96415.91;5016041;28;19990;-66
2022/08/06 04:12:26;;;;;;;;;;;;;;;9.81;44.41;96415.53;5013010;28;20056;-65
2022/08/06 04:14:51;;;;;;;;;;;;;;;9.99;43.50;96422.63;5016432;28;19992;-66
2022/08/06 04:17:16;;;;;;;;;;;;;;;9.53;45.14;96428.91;5016797;28;20480;-66
2022/08/06 04:19:42;;;;;;;;;;;;;;;9.48;48.76;96425.84;5007519;28;19988;-66
2022/08/06 04:22:07;;;;;;;;;;;;;;;9.69;47.74;96430.88;4990317;28;20051;-66
2022/08/06 04:24:32;;;;;;;;;;;;;;;9.90;47.94;96436.88;5008282;28;20462;-66
2022/08/06 04:26:58;;;;;;;;;;;;;;;9.44;46.08;96437.78;5008170;28;20369;-66
2022/08/06 04:29:23;;;;;;;;;;;;;;;9.68;46.46;96439.00;5009360;28;19993;-66
2022/08/06 04:31:50;;;;;;;;;;;;;;;9.61;46.06;96433.47;5005852;28;20019;-66
2022/08/06 04:34:22;;;;;;;;;;;;;;;9.94;46.69;96427.59;5004849;28;20134;-66
2022/08/06 04:36:48;;;;;;;;;;;;;;;10.23;45.29;96434.47;5004254;28;19989;-66
2022/08/06 04:39:13;;;;;;;;;;;;;;;10.43;44.75;96439.59;4995506;28;20059;-66
2022/08/06 04:41:38;;;;;;;;;;;;;;;10.76;44.01;96447.78;5003650;28;20001;-66
2022/08/06 04:44:03;;;;;;;;;;;;;;;10.91;42.75;96447.19;5007337;28;19997;-66
2022/08/06 04:46:29;;;;;;;;;;;;;;;11.00;42.61;96446.22;4988590;28;19989;-66
2022/08/06 04:48:54;;;;;;;;;;;;;;;11.11;42.10;96442.47;5006743;28;19978;-66
2022/08/06 04:51:22;;;;;;;;;;;;;;;11.16;41.96;96453.50;5004581;28;20404;-65
2022/08/06 04:53:47;;;;;;;;;;;;;;;11.19;41.62;96450.47;5009504;28;19994;-66
2022/08/06 04:56:13;;;;;;;;;;;;;;;11.06;41.90;96452.75;5005192;28;20393;-66
2022/08/06 04:58:38;;;;;;;;;;;;;;;10.91;42.29;96452.53;5008442;28;20275;-65
2022/08/06 05:01:03;;;;;;;;;;;;;;;10.82;42.23;96457.81;5007463;28;19977;-66
2022/08/06 05:03:28;;;;;;;;;;;;;;;10.90;42.33;96451.69;5004806;28;19981;-65
2022/08/06 05:05:56;;;;;;;;;;;;;;;10.69;43.42;96455.59;5014961;28;20024;-66
2022/08/06 05:08:22;;;;;;;;;;;;;;;10.49;44.02;96454.97;4988102;28;20505;-65
2022/08/06 05:10:54;;;;;;;;;;;;;;;10.59;44.34;96462.84;5002579;28;19989;-65
2022/08/06 05:13:20;;;;;;;;;;;;;;;10.81;43.40;96465.97;5003185;28;20238;-65
2022/08/06 05:15:46;;;;;;;;;;;;;;;10.91;43.24;96464.00;5010758;28;20427;-66
2022/08/06 05:18:16;;;;;;;;;;;;;;;10.85;43.83;96468.13;5011726;28;20004;-66
2022/08/06 05:20:42;;;;;;;;;;;;;;;10.98;43.76;96475.69;5009265;28;20043;-65
2022/08/06 05:23:15;;;;;;;;;;;;;;;11.09;43.62;96476.44;5004106;28;19997;-66
2022/08/06 05:25:40;;;;;;;;;;;;;;;11.35;43.10;96470.19;5009316;28;20493;-66
2022/08/06 05:28:05;;;;;;;;;;;;;;;11.55;43.10;96470.75;4998539;28;19969;-66
2022/08/06 05:30:31;;;;;;;;;;;;;;;11.78;42.87;96475.47;5014326;28;19989;-66
2022/08/06 05:32:56;;;;;;;;;;;;;;;12.12;42.12;96471.84;5006614;28;19973;-65
2022/08/06 05:35:21;;;;;;;;;;;;;;;12.31;41.89;96480.53;5001629;28;20439;-66
2022/08/06 05:37:46;;;;;;;;;;;;;;;12.24;43.27;96482.19;5008067;28;20604;-66
2022/08/06 05:40:12;;;;;;;;;;;;;;;12.30;42.61;96483.38;5014395;28;19996;-66
2022/08/06 05:42:37;;;;;;;;;;;;;;;12.22;42.64;96486.84;5018366;28;20584;-66
2022/08/06 05:45:02;;;;;;;;;;;;;;;12.21;43.39;96487.88;5007830;28;20447;-66
2022/08/06 05:47:28;;;;;;;;;;;;;;;12.20;43.84;96483.53;5010092;28;19981;-65
2022/08/06 05:50:06;;;;;;;;;;;;;;;11.92;46.77;96492.66;5007129;28;20374;-66
2022/08/06 05:52:35;;;;;;;;;;;;;;;11.90;43.71;96500.00;5008245;28;20065;-66
2022/08/06 05:55:00;;;;;;;;;;;;;;;11.99;45.57;96504.34;5011057;28;20048;-66
2022/08/06 05:57:28;;;;;;;;;;;;;;;11.73;44.86;96497.28;5013012;28;20005;-66
2022/08/06 05:59:58;;;;;;;;;;;;;;;11.93;44.73;96498.84;5007437;28;20425;-66
2022/08/06 06:02:24;;;;;;;;;;;;;;;11.59;47.56;96501.44;5011400;28;20025;-66
2022/08/06 06:04:49;;;;;;;;;;;;;;;11.66;46.76;96496.25;5017833;28;20040;-66
2022/08/06 06:07:14;;;;;;;;;;;;;;;11.92;44.77;96506.00;5014722;28;20303;-65
2022/08/06 06:09:41;;;;;;;;;;;;;;;12.03;44.10;96512.84;5006870;28;19996;-66
2022/08/06 06:12:06;;;;;;;;;;;;;;;11.91;44.35;96509.66;5009689;28;19980;-66
2022/08/06 06:14:41;;;;;;;;;;;;;;;12.07;45.92;96505.38;5001159;28;19992;-66
2022/08/06 06:17:09;;;;;;;;;;;;;;;11.92;44.65;96513.16;4997996;28;19940;-66
2022/08/06 06:19:55;;;;;;;;;;;;;;;12.08;46.12;96507.03;5010326;28;19924;-66
2022/08/06 06:22:28;;;;;;;;;;;;;;;12.42;43.79;96514.06;4998123;28;20571;-66
2022/08/06 06:24:55;;;;;;;;;;;;;;;12.07;43.94;96516.88;5010147;28;19917;-66
2022/08/06 06:27:25;;;;;;;;;;;;;;;12.32;44.49;96521.41;4996892;28;20031;-66
2022/08/06 06:29:58;;;;;;;;;;;;;;;12.10;45.54;96524.56;4997282;28;19927;-66
2022/08/06 06:32:36;;;;;;;;;;;;;;;12.14;44.71;96517.06;5004706;28;20463;-66
2022/08/06 06:35:07;;;;;;;;;;;;;;;12.49;44.95;96522.22;5007913;28;20012;-66
2022/08/06 06:37:51;;;;;;;;;;;;;;;12.46;44.11;96514.53;5013579;28;20453;-66
2022/08/06 06:40:37;;;;;;;;;;;;;;;12.63;43.86;96516.22;5018630;28;20393;-66
2022/08/06 06:43:05;;;;;;;;;;;;;;;12.63;42.99;96523.38;4988744;28;20357;-62
2022/08/06 06:45:42;;;;;;;;;;;;;;;13.01;42.01;96514.81;5008060;28;19972;-62
2022/08/06 06:48:10;;;;;;;;;;;;;;;13.47;41.98;96521.34;5010117;28;19920;-63
2022/08/06 06:50:38;;;;;;;;;;;;;;;13.35;41.80;96519.03;5021250;28;19964;-61
2022/08/06 06:53:03;;;;;;;;;;;;;;;12.88;41.12;96520.66;4995851;28;20011;-63
2022/08/06 06:55:33;;;;;;;;;;;;;;;13.08;41.21;96523.81;5021149;28;19976;-63
2022/08/06 06:58:01;;;;;;;;;;;;;;;13.34;42.34;96524.56;4992541;28;20388;-67
2022/08/06 07:00:26;;;;;;;;;;;;;;;13.36;41.20;96523.38;5015109;28;20019;-64
2022/08/06 07:02:52;;;;;;;;;;;;;;;13.78;41.55;96525.84;5007918;28;20021;-63
2022/08/06 07:05:17;;;;;;;;;;;;;;;14.00;41.06;96526.91;5007970;28;20004;-63
2022/08/06 07:07:43;;;;;;;;;;;;;;;14.32;40.16;96529.53;5010632;28;20181;-63
2022/08/06 07:10:08;;;;;;;;;;;;;;;13.57;40.97;96532.66;5007611;28;20012;-62
2022/08/06 07:12:34;;;;;;;;;;;;;;;13.48;41.69;96529.19;4990603;28;19970;-62
2022/08/06 07:15:04;;;;;;;;;;;;;;;14.08;39.22;96532.22;4995150;28;20266;-62
2022/08/06 07:17:30;;;;;;;;;;;;;;;12.66;41.17;96539.06;5012168;28;20322;-63
2022/08/06 07:19:56;;;;;;;;;;;;;;;13.97;40.15;96537.16;4994782;28;19975;-62
2022/08/06 07:22:22;;;;;;;;;;;;;;;13.77;39.32;96541.06;4999263;28;20543;-63
2022/08/06 07:24:48;;;;;;;;;;;;;;;13.49;39.18;96543.41;5011103;28;19978;-66
2022/08/06 07:27:14;;;;;;;;;;;;;;;13.63;38.92;96536.47;5018578;28;20457;-67
2022/08/06 07:29:39;;;;;;;;;;;;;;;14.02;39.24;96540.13;5009188;28;19989;-66
2022/08/06 07:32:04;;;;;;;;;;;;;;;13.21;39.84;96542.00;4994696;28;20059;-65
2022/08/06 07:34:30;;;;;;;;;;;;;;;14.22;40.46;96540.50;5006930;28;20326;-68
2022/08/06 07:36:55;;;;;;;;;;;;;;;14.56;38.23;96549.94;5018061;28;20027;-67
2022/08/06 07:39:22;;;;;;;;;;;;;;;14.77;37.82;96552.97;5007397;28;20266;-68
2022/08/06 07:41:48;;;;;;;;;;;;;;;13.41;37.87;96554.97;5013852;28;20468;-66
2022/08/06 07:44:13;;;;;;;;;;;;;;;14.58;38.74;96550.59;5010275;28;20022;-67
2022/08/06 07:46:41;;;;;;;;;;;;;;;14.22;37.96;96556.56;5004685;28;20432;-67
2022/08/06 07:49:06;;;;;;;;;;;;;;;14.67;36.83;96548.66;5008851;28;19966;-67
2022/08/06 07:51:35;;;;;;;;;;;;;;;12.69;40.50;96556.59;5003562;28;20333;-67
2022/08/06 07:54:01;;;;;;;;;;;;;;;12.54;39.92;96559.94;5007079;28;19987;-66
2022/08/06 07:56:27;;;;;;;;;;;;;;;12.81;39.08;96555.25;5004014;28;20289;-67
2022/08/06 07:58:52;;;;;;;;;;;;;;;14.56;38.11;96547.28;5004788;28;20085;-67
2022/08/06 08:01:17;;;;;;;;;;;;;;;15.07;36.46;96553.84;5008333;28;19973;-68
2022/08/06 08:06:28;;;;;;;;;;;;;;;14.16;36.04;96557.28;5020309;28;20433;-68
2022/08/06 08:08:54;;;;;;;;;;;;;;;15.38;38.05;96560.03;5005407;28;19974;-68
2022/08/06 08:11:20;;;;;;;;;;;;;;;15.90;32.62;96557.41;5011941;28;20544;-66
2022/08/06 08:13:45;;;;;;;;;;;;;;;16.37;32.33;96563.28;5005319;28;20036;-66
2022/08/06 08:16:12;;;;;;;;;;;;;;;15.57;32.88;96566.72;5006273;28;20012;-66
2022/08/06 08:18:38;;;;;;;;;;;;;;;15.20;33.97;96555.88;5005087;28;20042;-67
2022/08/06 08:21:03;;;;;;;;;;;;;;;14.54;35.68;96560.00;4987706;28;19995;-64
2022/08/06 08:23:30;;;;;;;;;;;;;;;15.60;34.60;96557.44;5007725;28;19964;-67
2022/08/06 08:25:56;;;;;;;;;;;;;;;15.72;33.31;96558.66;5004141;28;19994;-67
2022/08/06 08:28:21;;;;;;;;;;;;;;;14.97;37.11;96558.63;5003163;28;19970;-68
2022/08/06 08:30:47;;;;;;;;;;;;;;;15.67;34.62;96558.38;5008835;28;20331;-68
2022/08/06 08:33:12;;;;;;;;;;;;;;;14.94;32.29;96554.47;5004375;28;20076;-68
2022/08/06 08:35:38;;;;;;;;;;;;;;;15.58;34.61;96563.03;5006058;28;19972;-66
2022/08/06 08:38:03;;;;;;;;;;;;;;;16.34;32.54;96562.81;5004730;28;20000;-67
2022/08/06 08:40:28;;;;;;;;;;;;;;;17.06;30.82;96559.28;5006881;28;19973;-67
2022/08/06 08:42:55;;;;;;;;;;;;;;;16.03;29.61;96564.78;5003811;28;20075;-66
2022/08/06 08:45:20;;;;;;;;;;;;;;;16.90;29.38;96554.00;5007504;28;20322;-68
2022/08/06 08:47:48;;;;;;;;;;;;;;;17.91;29.25;96548.38;5005210;28;19970;-66
2022/08/06 08:50:14;;;;;;;;;;;;;;;16.70;28.70;96561.94;5008397;28;19999;-68
2022/08/06 08:52:40;;;;;;;;;;;;;;;17.86;33.11;96558.09;5006825;28;19971;-67
2022/08/06 08:55:06;;;;;;;;;;;;;;;17.40;27.61;96565.72;4998959;28;19986;-68
2022/08/06 08:57:33;;;;;;;;;;;;;;;16.79;28.56;96565.28;5005347;28;20002;-67
2022/08/06 08:59:59;;;;;;;;;;;;;;;17.67;32.01;96564.00;4992991;28;20024;-68
2022/08/06 09:02:24;;;;;;;;;;;;;;;16.87;30.38;96567.00;5007187;28;20022;-67
2022/08/06 09:04:50;;;;;;;;;;;;;;;17.56;29.85;96561.03;4994068;28;20457;-67
2022/08/06 09:07:15;;;;;;;;;;;;;;;17.82;30.41;96557.63;5008729;28;20240;-68
2022/08/06 09:09:41;;;;;;;;;;;;;;;17.89;29.10;96565.75;5012184;28;19986;-68
2022/08/06 09:12:07;;;;;;;;;;;;;;;16.32;34.65;96571.03;5013668;28;19964;-67
2022/08/06 09:14:32;;;;;;;;;;;;;;;17.77;28.60;96566.31;5014427;28;19989;-67
2022/08/06 09:16:57;;;;;;;;;;;;;;;18.43;29.54;96547.03;5019450;28;20375;-67
2022/08/06 09:19:23;;;;;;;;;;;;;;;18.71;28.63;96555.97;5014126;28;19988;-65
2022/08/06 09:21:48;;;;;;;;;;;;;;;19.04;27.29;96569.44;5005524;28;19985;-66
2022/08/06 09:24:13;;;;;;;;;;;;;;;19.96;24.94;96554.25;5002119;28;19963;-67
2022/08/06 09:26:39;;;;;;;;;;;;;;;19.53;25.75;96562.94;5002433;28;20618;-68
2022/08/06 09:29:14;;;;;;;;;;;;;;;18.42;26.36;96558.81;5001902;28;20070;-67
2022/08/06 09:31:39;;;;;;;;;;;;;;;18.28;27.69;96566.06;5008382;28;19958;-67
2022/08/06 09:34:05;;;;;;;;;;;;;;;18.42;26.82;96566.91;5003063;28;19992;-67
2022/08/06 09:36:43;;;;;;;;;;;;;;;17.45;26.88;96562.44;5009834;28;20006;-68
2022/08/06 09:39:08;;;;;;;;;;;;;;;17.94;31.21;96565.16;5003772;28;19997;-67
2022/08/06 09:41:34;;;;;;;;;;;;;;;16.70;26.59;96575.38;5004863;28;19982;-67
2022/08/06 09:44:01;;;;;;;;;;;;;;;17.70;29.86;96560.06;5004101;28;19994;-67
2022/08/06 09:46:37;;;;;;;;;;;;;;;18.91;29.88;96567.59;5003939;28;20389;-66
2022/08/06 09:49:02;;;;;;;;;;;;;;;18.86;29.75;96566.56;5004496;28;20064;-66
2022/08/06 09:51:27;;;;;;;;;;;;;;;17.61;27.98;96564.78;5006786;28;20010;-66
2022/08/06 09:53:54;;;;;;;;;;;;;;;17.83;28.64;96569.22;5004539;28;19985;-68
2022/08/06 09:56:19;;;;;;;;;;;;;;;17.40;31.36;96571.94;5007686;28;20096;-66
2022/08/06 09:58:45;;;;;;;;;;;;;;;17.40;29.18;96565.72;5003747;28;20612;-68
2022/08/06 10:01:20;;;;;;;;;;;;;;;18.55;27.88;96566.09;5007926;28;19996;-68
2022/08/06 10:03:46;;;;;;;;;;;;;;;19.07;24.85;96552.03;5012633;28;20028;-68
2022/08/06 10:06:12;;;;;;;;;;;;;;;18.79;25.72;96562.00;5008055;28;20234;-67
2022/08/06 10:08:38;;;;;;;;;;;;;;;19.38;26.19;96565.88;5011710;28;19975;-68
2022/08/06 10:11:03;;;;;;;;;;;;;;;19.87;26.64;96568.19;5007655;28;19988;-68
2022/08/06 10:13:29;;;;;;;;;;;;;;;19.69;27.07;96565.16;5004267;28;20011;-68
2022/08/06 10:15:56;;;;;;;;;;;;;;;19.40;27.25;96567.34;5010799;28;19990;-68
2022/08/06 10:18:39;;;;;;;;;;;;;;;19.94;25.39;96569.00;5005712;28;20021;-68
2022/08/06 10:21:05;;;;;;;;;;;;;;;20.23;24.84;96572.22;5014633;28;20021;-68
2022/08/06 10:23:32;;;;;;;;;;;;;;;19.63;26.25;96566.03;5010882;28;20446;-67
2022/08/06 10:25:57;;;;;;;;;;;;;;;19.82;23.94;96563.47;5008438;28;19983;-66
2022/08/06 10:28:23;;;;;;;;;;;;;;;20.71;23.65;96559.22;5001271;28;20088;-68
2022/08/06 10:30:48;;;;;;;;;;;;;;;21.17;22.14;96564.44;5005748;28;19985;-68
2022/08/06 10:33:14;;;;;;;;;;;;;;;21.36;22.18;96554.47;5002855;28;19963;-67
2022/08/06 10:35:39;;;;;;;;;;;;;;;20.68;26.07;96573.19;5021970;28;19958;-67
2022/08/06 10:38:04;;;;;;;;;;;;;;;19.92;26.73;96560.31;4992909;28;19990;-67
2022/08/06 10:40:30;;;;;;;;;;;;;;;17.71;29.99;96561.72;5005594;28;20419;-67
2022/08/06 10:42:55;;;;;;;;;;;;;;;19.23;25.97;96560.72;5003832;28;19995;-67
2022/08/06 10:45:20;;;;;;;;;;;;;;;19.51;24.26;96552.34;5004829;28;19983;-67
2022/08/06 10:47:46;;;;;;;;;;;;;;;19.18;26.94;96564.03;5006298;28;19969;-67
2022/08/06 10:50:11;;;;;;;;;;;;;;;18.77;26.43;96550.56;5007268;28;20475;-68
2022/08/06 10:52:37;;;;;;;;;;;;;;;18.33;28.89;96551.97;5006679;28;19992;-67
2022/08/06 10:55:03;;;;;;;;;;;;;;;19.00;26.90;96549.31;5018004;28;20400;-68
2022/08/06 10:57:28;;;;;;;;;;;;;;;18.18;28.56;96561.06;5006950;28;20339;-68
2022/08/06 10:59:54;;;;;;;;;;;;;;;19.72;24.29;96556.63;5017867;28;19968;-66
2022/08/06 11:02:45;;;;;;;;;;;;;;;20.50;22.88;96555.81;5007449;28;20350;-67
2022/08/06 11:05:17;;;;;;;;;;;;;;;20.40;24.51;96553.59;5005650;28;20591;-68
2022/08/06 11:07:54;;;;;;;;;;;;;;;21.07;25.11;96551.44;5012826;28;20041;-68
2022/08/06 11:10:32;;;;;;;;;;;;;;;21.08;23.11;96544.97;5008126;28;19978;-68
2022/08/06 11:12:57;;;;;;;;;;;;;;;20.23;24.98;96548.69;5008387;28;19963;-66
2022/08/06 11:15:22;;;;;;;;;;;;;;;19.46;24.36;96549.47;5008209;28;19974;-67
2022/08/06 11:17:52;;;;;;;;;;;;;;;19.49;29.62;96545.50;5009455;28;19986;-67
2022/08/06 11:20:32;;;;;;;;;;;;;;;20.47;22.99;96542.72;5012259;28;19984;-66
2022/08/06 11:23:17;;;;;;;;;;;;;;;20.27;22.96;96548.28;5009929;28;20003;-65
2022/08/06 11:25:43;;;;;;;;;;;;;;;21.05;23.24;96539.97;5012840;28;20025;-68
2022/08/06 11:28:09;;;;;;;;;;;;;;;20.83;24.01;96546.63;5009494;28;19970;-68
2022/08/06 11:30:38;;;;;;;;;;;;;;;20.05;24.57;96533.22;5016487;28;20335;-66
2022/08/06 11:33:04;;;;;;;;;;;;;;;20.71;24.42;96537.59;5010627;28;20158;-68
2022/08/06 11:35:35;;;;;;;;;;;;;;;19.63;25.82;96532.78;5009957;28;20482;-67
2022/08/06 11:38:01;;;;;;;;;;;;;;;18.54;24.84;96538.31;5021623;28;19991;-68
2022/08/06 11:40:26;;;;;;;;;;;;;;;20.37;25.35;96529.69;5005179;28;19960;-67
2022/08/06 11:42:51;;;;;;;;;;;;;;;20.71;25.33;96524.06;5010612;28;19989;-68
2022/08/06 11:45:17;;;;;;;;;;;;;;;20.99;21.40;96520.88;5004388;28;19954;-67
2022/08/06 11:48:16;;;;;;;;;;;;;;;20.56;23.20;96530.59;5009835;28;19954;-68
2022/08/06 11:50:41;;;;;;;;;;;;;;;21.49;25.04;96523.72;4988068;28;20012;-68
2022/08/06 11:53:07;;;;;;;;;;;;;;;21.84;22.20;96516.81;5004795;28;20431;-68
2022/08/06 11:55:32;;;;;;;;;;;;;;;21.63;26.72;96527.94;5004909;28;20055;-68
2022/08/06 11:58:15;;;;;;;;;;;;;;;22.10;22.14;96517.53;5003587;28;20060;-67
2022/08/06 12:00:59;;;;;;;;;;;;;;;20.24;23.62;96525.22;5004703;28;19958;-67
2022/08/06 12:03:37;;;;;;;;;;;;;;;19.35;23.96;96517.72;5004812;28;19976;-67
2022/08/06 12:06:17;;;;;;;;;;;;;;;18.10;24.16;96527.06;5006427;28;19980;-67
2022/08/06 12:08:42;;;;;;;;;;;;;;;18.67;30.51;96520.50;5010276;28;19954;-68
2022/08/06 12:11:24;;;;;;;;;;;;;;;19.67;24.10;96507.00;5005723;28;20082;-66
2022/08/06 12:13:49;;;;;;;;;;;;;;;21.58;25.74;96499.88;5005824;28;20533;-67
2022/08/06 12:16:26;;;;;;;;;;;;;;;21.35;22.57;96512.22;5012920;28;19959;-67
2022/08/06 12:18:52;;;;;;;;;;;;;;;21.72;21.40;96506.75;5007983;28;20077;-67
2022/08/06 12:21:17;;;;;;;;;;;;;;;22.55;19.93;96504.56;5010561;28;20058;-66
2022/08/06 12:23:42;;;;;;;;;;;;;;;22.98;21.85;96508.03;5009463;28;19990;-68
2022/08/06 12:26:08;;;;;;;;;;;;;;;22.37;19.52;96500.88;5007539;28;20088;-67
2022/08/06 12:28:33;;;;;;;;;;;;;;;23.04;18.82;96507.06;5009983;28;19949;-68
2022/08/06 12:30:58;;;;;;;;;;;;;;;24.29;18.66;96495.94;4994454;28;19976;-67
2022/08/06 12:33:23;;;;;;;;;;;;;;;24.36;18.65;96502.09;5009202;28;19972;-67
2022/08/06 12:35:58;;;;;;;;;;;;;;;25.11;19.07;96497.53;5011895;28;19950;-67
2022/08/06 12:38:25;;;;;;;;;;;;;;;25.04;17.24;96493.09;4996452;28;19969;-67
2022/08/06 12:40:53;;;;;;;;;;;;;;;23.49;22.03;96496.63;4986300;28;19946;-67
2022/08/06 12:43:19;;;;;;;;;;;;;;;23.68;19.97;96489.13;5013872;28;20585;-69
2022/08/06 12:45:44;;;;;;;;;;;;;;;22.95;19.64;96490.31;5002352;28;19972;-67
2022/08/06 12:48:10;;;;;;;;;;;;;;;22.05;20.33;96491.13;5004987;28;19988;-66
2022/08/06 12:50:36;;;;;;;;;;;;;;;22.28;19.28;96490.38;5003665;28;20462;-67